Tok, Alaska
Current Conditions -  °F | °C
As of 3:53 PM on Saturday 20 Dec 2014 (Local Time) from PAOR Reporting Station
Light Snow Light Snow  
Wind Chill: -5°   Ceiling: 3100
Heat Index: -5°   Visibility: 9mi
Dew Point: -10°   Wind: 0mph
Humidity: 80%   Direction: NA
Pressure: 29.14"   Gusts: NA
Location:  63.33°N, 142.99°W
Report Text: PAOR 210053Z 00000KT 9SM -SN SCT010 OVC031 M21/M23 A2914 RMK AO2 SLP936 PCPN VRY LGT T12061233
Loading
Personal Weather Stations






























Interactive Weather Map New forecast layout! Learn more

10-Day Weather Forecast

Advertisements
Track Severe Weather on mobile